Victory, Vermont
Current Conditions -  °F | °C
As of 12:15 PM on Friday 19 Dec 2014 (Local Time) from KCDA Reporting Station
Light Snow Light Snow  
Wind Chill: 17°   Ceiling: 1800
Heat Index: 25°   Visibility: 4mi
Dew Point: 18°   Wind: 7mph
Humidity: 75%   Direction: 300°WNW
Pressure: 29.98"   Gusts: NA
Location:  44.5627°N, 71.7775°W
Report Text: KCDA 191715Z AUTO 30006KT 4SM -SN OVC018 M04/M08 A2998 RMK AO2 T10401078
Loading
Personal Weather Stations






























Interactive Weather Map New forecast layout! Learn more

10-Day Weather Forecast

Advertisements
Track Severe Weather on mobile